TAF and METAR

Could not understand the following METAR

DAUI 201400Z 24008KT CAVOK 42/// Q1012

TAF for In Salah Airport

TAF DAUI 201100Z 2012/2112 18010KT CAVOK BECMG 2022/2101 06010KT BECMG 2109/2111 18010KT
Report created 20. sep 13:00

between 20. sep 14:00 - 21. sep 14:00

wind 10 knots from S (180°) Clear sky

becoming between 21. sep 00:00 - 21. sep 03:00

wind 10 knots from ENE (060°)

becoming between 21. sep 11:00 - 21. sep 13:00

wind 10 knots from S (180°)
In Salah Airport in Algeria at 269m

Latest 5 airports